Time;durP1;ratioP1;P1;durP2;ratioP2;P2;SDS_P1;SDS_P2;PMS_P1;PMS_P2;Temp;Humidity;BMP_temperature;BMP_pressure;BME280_temperature;BME280_humidity;BME280_pressure;Samples;Min_cycle;Max_cycle;Signal;HPM_P1;HPM_P2
2021/09/17 00:02:24;;;;;;;26.67;20.17;;;14.50;99.90;;;;;;5077083;28;20043;-74
2021/09/17 00:04:51;;;;;;;27.23;20.38;;;14.60;99.90;;;;;;5093663;28;20388;-75
2021/09/17 00:07:17;;;;;;;28.67;20.75;;;14.60;99.90;;;;;;5093269;28;20051;-74
2021/09/17 00:09:43;;;;;;;28.90;20.77;;;14.50;99.90;;;;;;5095135;28;20032;-75
2021/09/17 00:12:09;;;;;;;28.88;22.00;;;14.50;99.90;;;;;;5095045;28;20456;-75
2021/09/17 00:14:35;;;;;;;27.83;20.23;;;14.50;99.90;;;;;;5094886;28;20077;-74
2021/09/17 00:17:00;;;;;;;27.40;20.98;;;14.50;99.90;;;;;;5094380;28;20123;-75
2021/09/17 00:19:26;;;;;;;31.55;22.77;;;14.50;99.90;;;;;;5094476;28;20050;-75
2021/09/17 00:21:51;;;;;;;30.10;21.10;;;14.50;99.90;;;;;;5093706;28;20044;-74
2021/09/17 00:24:17;;;;;;;31.23;22.80;;;14.50;99.90;;;;;;5075682;28;20039;-74
2021/09/17 00:26:43;;;;;;;30.63;22.20;;;14.50;99.90;;;;;;5094361;28;20032;-74
2021/09/17 00:29:08;;;;;;;35.97;23.95;;;14.50;99.90;;;;;;5092898;28;20036;-74
2021/09/17 00:31:34;;;;;;;29.10;21.80;;;14.50;99.90;;;;;;5094055;28;20043;-74
2021/09/17 00:33:59;;;;;;;33.75;23.45;;;14.50;99.90;;;;;;5094033;28;20067;-74
2021/09/17 00:36:25;;;;;;;29.60;21.85;;;14.50;99.90;;;;;;5094286;28;20089;-75
2021/09/17 00:38:50;;;;;;;32.60;23.25;;;14.50;99.90;;;;;;5093849;28;20472;-75
2021/09/17 00:41:16;;;;;;;32.08;24.02;;;14.50;99.90;;;;;;5094040;28;20036;-73
2021/09/17 00:43:42;;;;;;;31.52;22.25;;;14.50;99.90;;;;;;5093118;28;20055;-73
2021/09/17 00:46:07;;;;;;;32.95;23.02;;;14.50;99.90;;;;;;5094495;28;20047;-73
2021/09/17 00:48:34;;;;;;;31.80;23.42;;;14.50;99.90;;;;;;5093565;28;20066;-74
2021/09/17 00:50:59;;;;;;;33.88;23.15;;;14.50;99.90;;;;;;5093933;28;20063;-74
2021/09/17 00:53:25;;;;;;;29.40;22.08;;;14.50;99.90;;;;;;5092693;28;20400;-74
2021/09/17 00:55:51;;;;;;;30.00;22.67;;;14.50;99.90;;;;;;5093711;28;20039;-74
2021/09/17 00:58:17;;;;;;;34.08;24.70;;;14.50;99.90;;;;;;5093604;28;20047;-74
2021/09/17 01:00:42;;;;;;;32.33;22.85;;;14.50;99.90;;;;;;5093913;28;20039;-74
2021/09/17 01:03:08;;;;;;;31.95;22.60;;;14.40;99.90;;;;;;5093798;28;20074;-74
2021/09/17 01:05:34;;;;;;;32.38;23.60;;;14.50;99.90;;;;;;5093724;28;20110;-74
2021/09/17 01:08:01;;;;;;;31.45;22.63;;;14.40;99.90;;;;;;5093796;28;20093;-74
2021/09/17 01:10:27;;;;;;;31.90;23.02;;;14.40;99.90;;;;;;5093204;28;20093;-74
2021/09/17 01:12:54;;;;;;;35.25;24.38;;;14.40;99.90;;;;;;5093345;28;20036;-74
2021/09/17 01:15:19;;;;;;;37.58;24.33;;;14.40;99.90;;;;;;5093857;28;20083;-74
2021/09/17 01:17:45;;;;;;;33.10;24.75;;;14.30;99.90;;;;;;5075135;28;20072;-74
2021/09/17 01:20:21;;;;;;;31.85;22.38;;;14.30;99.90;;;;;;5091959;28;20040;-74
2021/09/17 01:22:48;;;;;;;32.10;23.83;;;14.20;99.90;;;;;;5093591;28;20039;-74
2021/09/17 01:25:16;;;;;;;35.83;24.00;;;14.30;99.90;;;;;;5092391;28;20036;-74
2021/09/17 01:27:43;;;;;;;35.75;24.65;;;14.20;99.90;;;;;;5092435;28;20040;-74
2021/09/17 01:30:10;;;;;;;32.67;22.80;;;14.20;99.90;;;;;;5075272;28;20096;-74
2021/09/17 01:32:36;;;;;;;31.88;22.67;;;14.20;99.90;;;;;;5092279;28;20078;-75
2021/09/17 01:35:04;;;;;;;32.58;24.48;;;14.20;99.90;;;;;;5095041;28;20093;-74
2021/09/17 01:37:29;;;;;;;34.08;24.73;;;14.20;99.90;;;;;;5097727;28;20404;-74
2021/09/17 01:39:55;;;;;;;32.72;23.10;;;14.20;99.90;;;;;;5097257;28;20036;-74
2021/09/17 01:42:20;;;;;;;35.90;24.77;;;14.10;99.90;;;;;;5097457;28;20044;-74
2021/09/17 01:44:46;;;;;;;35.83;25.85;;;14.10;99.90;;;;;;5098071;28;20032;-74
2021/09/17 01:47:11;;;;;;;34.53;23.77;;;14.10;99.90;;;;;;5097640;28;20457;-74
2021/09/17 01:49:37;;;;;;;34.63;24.75;;;14.10;99.90;;;;;;5097135;28;20039;-73
2021/09/17 01:52:03;;;;;;;36.08;24.25;;;14.10;99.90;;;;;;5095953;28;20481;-74
2021/09/17 01:54:29;;;;;;;30.45;23.83;;;14.10;99.90;;;;;;5097530;28;20036;-74
2021/09/17 01:56:54;;;;;;;39.60;24.30;;;14.10;99.90;;;;;;5095914;28;20048;-74
2021/09/17 01:59:20;;;;;;;31.65;24.23;;;14.10;99.90;;;;;;5096970;28;20039;-74
2021/09/17 02:01:46;;;;;;;32.47;22.35;;;14.10;99.90;;;;;;5097009;28;20401;-74
2021/09/17 02:04:12;;;;;;;39.03;25.90;;;14.10;99.90;;;;;;5096942;28;20077;-74
2021/09/17 02:06:37;;;;;;;33.08;23.55;;;14.10;99.90;;;;;;5096911;28;20112;-74
2021/09/17 02:09:03;;;;;;;32.55;24.02;;;14.10;99.90;;;;;;5095451;28;20364;-74
2021/09/17 02:11:29;;;;;;;37.05;25.75;;;14.10;99.90;;;;;;5097474;28;20040;-74
2021/09/17 02:13:55;;;;;;;33.67;23.20;;;14.10;99.90;;;;;;5096890;28;20032;-74
2021/09/17 02:16:21;;;;;;;34.15;23.98;;;14.10;99.90;;;;;;5096728;28;20044;-74
2021/09/17 02:18:47;;;;;;;34.67;23.73;;;14.10;99.90;;;;;;5096733;28;20043;-74
2021/09/17 02:21:19;;;;;;;33.92;24.42;;;14.20;99.90;;;;;;5095297;28;20399;-74
2021/09/17 02:23:45;;;;;;;36.08;25.20;;;14.20;99.90;;;;;;5079062;28;20115;-74
2021/09/17 02:26:11;;;;;;;36.72;26.27;;;14.20;99.90;;;;;;5096865;28;20127;-74
2021/09/17 02:28:36;;;;;;;33.75;26.08;;;14.20;99.90;;;;;;5096259;28;20067;-74
2021/09/17 02:31:02;;;;;;;37.17;26.25;;;14.20;99.90;;;;;;5095549;28;20051;-74
2021/09/17 02:33:27;;;;;;;34.40;23.65;;;14.20;99.90;;;;;;5096508;28;20437;-74
2021/09/17 02:35:53;;;;;;;39.17;24.58;;;14.20;99.90;;;;;;5095745;28;20055;-74
2021/09/17 02:38:20;;;;;;;33.22;23.85;;;14.20;99.90;;;;;;5095194;28;20437;-74
2021/09/17 02:40:46;;;;;;;33.10;24.52;;;14.20;99.90;;;;;;5096507;28;20040;-74
2021/09/17 02:43:12;;;;;;;33.47;24.38;;;14.20;99.90;;;;;;5095684;28;20110;-74
2021/09/17 02:45:37;;;;;;;33.65;23.88;;;14.20;99.90;;;;;;5094124;28;20380;-74
2021/09/17 02:48:04;;;;;;;31.33;22.38;;;14.20;99.90;;;;;;5096420;28;20051;-74
2021/09/17 02:50:30;;;;;;;32.97;23.20;;;14.10;99.90;;;;;;5095948;28;20036;-74
2021/09/17 02:52:55;;;;;;;30.80;22.45;;;14.20;99.90;;;;;;5096070;28;20040;-74
2021/09/17 02:55:21;;;;;;;31.95;24.15;;;14.10;99.90;;;;;;5095089;28;20043;-74
2021/09/17 02:57:47;;;;;;;33.15;23.35;;;14.10;99.90;;;;;;5094960;28;20054;-74
2021/09/17 03:00:13;;;;;;;34.63;24.35;;;14.20;99.90;;;;;;5094539;28;20055;-74
2021/09/17 03:02:38;;;;;;;33.97;23.73;;;14.20;99.90;;;;;;5096089;28;20040;-74
2021/09/17 03:05:04;;;;;;;34.58;24.73;;;14.10;99.90;;;;;;5095777;28;20035;-74
2021/09/17 03:07:30;;;;;;;34.80;23.40;;;14.10;99.90;;;;;;5094744;28;20047;-74
2021/09/17 03:09:55;;;;;;;31.25;22.83;;;14.10;99.90;;;;;;5094391;28;20044;-74
2021/09/17 03:12:21;;;;;;;35.65;24.77;;;14.10;99.90;;;;;;5095595;28;20419;-74
2021/09/17 03:14:47;;;;;;;33.63;24.30;;;14.10;99.90;;;;;;5095670;28;20115;-74
2021/09/17 03:17:12;;;;;;;30.27;21.77;;;14.10;99.90;;;;;;5095745;28;20415;-74
2021/09/17 03:19:38;;;;;;;39.05;25.77;;;14.10;99.90;;;;;;5077279;28;20480;-74
2021/09/17 03:22:04;;;;;;;31.33;22.88;;;14.10;99.90;;;;;;5094429;28;20032;-74
2021/09/17 03:24:30;;;;;;;30.98;21.73;;;14.10;99.90;;;;;;5095586;28;20066;-74
2021/09/17 03:26:58;;;;;;;32.17;22.48;;;14.10;99.90;;;;;;5095400;28;20051;-74
2021/09/17 03:29:24;;;;;;;29.75;22.02;;;14.20;99.90;;;;;;5095337;28;20063;-74
2021/09/17 03:31:50;;;;;;;31.65;21.55;;;14.20;99.90;;;;;;5095677;28;20503;-74
2021/09/17 03:34:16;;;;;;;32.50;23.83;;;14.10;99.90;;;;;;5095545;28;20032;-74
2021/09/17 03:36:42;;;;;;;30.77;22.38;;;14.10;99.90;;;;;;5094224;28;20385;-74
2021/09/17 03:39:10;;;;;;;33.17;23.77;;;14.20;99.90;;;;;;5095448;28;20434;-74
2021/09/17 03:41:35;;;;;;;33.13;24.20;;;14.10;99.90;;;;;;5094177;28;20032;-74
2021/09/17 03:44:01;;;;;;;36.75;25.48;;;14.10;99.90;;;;;;5095080;28;20115;-74
2021/09/17 03:46:26;;;;;;;34.13;24.05;;;14.10;99.90;;;;;;5095124;28;20507;-74
2021/09/17 03:48:52;;;;;;;34.95;23.73;;;14.10;99.90;;;;;;5093929;28;20040;-74
2021/09/17 03:51:18;;;;;;;30.77;23.15;;;14.10;99.90;;;;;;5094825;28;20050;-74
2021/09/17 03:53:43;;;;;;;36.97;25.13;;;14.10;99.90;;;;;;5094797;28;20396;-74
2021/09/17 03:56:09;;;;;;;30.88;23.90;;;14.10;99.90;;;;;;5093516;28;20044;-74
2021/09/17 03:58:34;;;;;;;32.95;24.17;;;14.10;99.90;;;;;;5094357;28;20044;-74
2021/09/17 04:01:00;;;;;;;34.78;25.60;;;14.10;99.90;;;;;;5093878;28;20036;-74
2021/09/17 04:03:25;;;;;;;35.88;26.45;;;14.00;99.90;;;;;;5094698;28;20369;-74
2021/09/17 04:05:51;;;;;;;32.65;23.75;;;14.00;99.90;;;;;;5095142;28;20364;-74
2021/09/17 04:08:17;;;;;;;32.67;23.75;;;14.00;99.90;;;;;;5093494;28;20127;-74
2021/09/17 04:10:42;;;;;;;32.63;22.98;;;14.00;99.90;;;;;;5095114;28;20044;-74
2021/09/17 04:13:08;;;;;;;31.30;23.65;;;13.90;99.90;;;;;;5094488;28;20494;-74
2021/09/17 04:15:33;;;;;;;33.75;23.77;;;13.90;99.90;;;;;;5093402;28;20520;-74
2021/09/17 04:17:59;;;;;;;30.38;22.48;;;13.90;99.90;;;;;;5094603;28;20079;-74
2021/09/17 04:20:25;;;;;;;30.20;21.15;;;13.90;99.90;;;;;;5094198;28;20071;-74
2021/09/17 04:22:50;;;;;;;28.05;21.52;;;14.00;99.90;;;;;;5094237;28;20044;-74
2021/09/17 04:25:17;;;;;;;34.58;23.95;;;14.00;99.90;;;;;;5076973;28;20531;-74
2021/09/17 04:27:45;;;;;;;32.70;22.42;;;14.00;99.90;;;;;;5095691;28;20040;-76
2021/09/17 04:30:13;;;;;;;34.33;22.60;;;14.00;99.90;;;;;;5078125;28;20047;-76
2021/09/17 04:32:39;;;;;;;31.02;22.10;;;14.00;99.90;;;;;;5094999;28;20412;-75
2021/09/17 04:35:05;;;;;;;29.75;20.92;;;14.00;99.90;;;;;;5094633;28;20050;-73
2021/09/17 04:37:31;;;;;;;34.55;24.02;;;14.10;99.90;;;;;;5093980;28;20091;-74
2021/09/17 04:39:57;;;;;;;32.47;23.83;;;14.10;99.90;;;;;;5094384;28;20035;-74
2021/09/17 04:42:22;;;;;;;35.05;24.70;;;14.10;99.90;;;;;;5093935;28;20086;-74
2021/09/17 04:44:48;;;;;;;31.77;23.40;;;14.00;99.90;;;;;;5094000;28;20036;-74
2021/09/17 04:47:14;;;;;;;36.65;23.80;;;14.10;99.90;;;;;;5094297;28;20381;-74
2021/09/17 04:49:39;;;;;;;32.63;22.95;;;14.10;99.90;;;;;;5093644;28;20048;-74
2021/09/17 04:52:05;;;;;;;33.47;22.95;;;14.10;99.90;;;;;;5092821;28;20442;-74
2021/09/17 04:54:31;;;;;;;33.60;24.35;;;14.10;99.90;;;;;;5093774;28;20043;-74
2021/09/17 04:56:56;;;;;;;34.92;24.63;;;14.10;99.90;;;;;;5092641;28;20044;-74
2021/09/17 04:59:22;;;;;;;32.90;24.58;;;14.10;99.90;;;;;;5093457;28;20464;-74
2021/09/17 05:01:51;;;;;;;36.95;24.70;;;14.20;99.90;;;;;;5092617;28;20122;-74
2021/09/17 05:04:16;;;;;;;36.28;24.92;;;14.20;99.90;;;;;;5075553;28;20048;-75
2021/09/17 05:06:42;;;;;;;35.50;26.10;;;14.20;99.90;;;;;;5075408;28;20058;-73
2021/09/17 05:09:07;;;;;;;39.15;27.33;;;14.20;99.90;;;;;;5092596;28;20104;-73
2021/09/17 05:11:33;;;;;;;34.95;25.33;;;14.20;99.90;;;;;;5093615;28;20439;-73
2021/09/17 05:13:58;;;;;;;35.10;25.27;;;14.20;99.90;;;;;;5093419;28;20521;-73
2021/09/17 05:16:24;;;;;;;35.42;25.05;;;14.20;99.90;;;;;;5093530;28;20032;-74
2021/09/17 05:18:50;;;;;;;29.95;23.23;;;14.20;99.90;;;;;;5091695;28;20068;-73
2021/09/17 05:21:15;;;;;;;38.58;25.45;;;14.20;99.90;;;;;;5093142;28;20081;-73
2021/09/17 05:23:41;;;;;;;36.78;25.88;;;14.30;99.90;;;;;;5093226;28;20036;-74
2021/09/17 05:26:07;;;;;;;39.45;24.83;;;14.20;99.90;;;;;;5092246;28;20048;-73
2021/09/17 05:28:33;;;;;;;36.42;25.30;;;14.30;99.90;;;;;;5093227;28;20040;-74
2021/09/17 05:31:02;;;;;;;34.13;25.63;;;14.30;99.90;;;;;;5093381;28;20042;-73
2021/09/17 05:33:27;;;;;;;31.58;23.15;;;14.30;99.90;;;;;;5093885;28;20043;-74
2021/09/17 05:35:53;;;;;;;35.20;26.35;;;14.30;99.90;;;;;;5093227;28;20123;-73
2021/09/17 05:38:19;;;;;;;35.83;24.50;;;14.30;99.90;;;;;;5091787;28;20056;-72
2021/09/17 05:40:44;;;;;;;35.97;24.75;;;14.30;99.90;;;;;;5092950;28;20047;-73
2021/09/17 05:43:10;;;;;;;38.83;26.42;;;14.40;99.90;;;;;;5093423;28;20096;-73
2021/09/17 05:45:36;;;;;;;38.83;26.38;;;14.40;99.90;;;;;;5091903;28;20480;-73
2021/09/17 05:48:01;;;;;;;39.22;26.27;;;14.40;99.90;;;;;;5075280;28;20131;-73
2021/09/17 05:50:27;;;;;;;41.67;27.25;;;14.50;99.90;;;;;;5093024;28;20484;-73
2021/09/17 05:52:52;;;;;;;34.28;24.83;;;14.50;99.90;;;;;;5092265;28;20036;-72
2021/09/17 05:55:20;;;;;;;34.60;26.15;;;14.50;99.90;;;;;;5092995;28;20039;-72
2021/09/17 05:57:46;;;;;;;44.88;29.23;;;14.50;99.90;;;;;;5092957;28;20044;-72
2021/09/17 06:00:13;;;;;;;37.60;27.17;;;14.60;99.90;;;;;;5093018;28;20036;-73
2021/09/17 06:02:39;;;;;;;38.50;28.15;;;14.50;99.90;;;;;;5075099;28;20085;-73
2021/09/17 06:05:08;;;;;;;37.75;26.27;;;14.60;99.90;;;;;;5092881;28;20044;-73
2021/09/17 06:07:39;;;;;;;42.63;27.30;;;14.60;99.90;;;;;;5093042;28;20086;-73
2021/09/17 06:10:05;;;;;;;37.00;26.60;;;14.60;99.90;;;;;;5092971;28;20082;-73
2021/09/17 06:12:31;;;;;;;38.38;26.52;;;14.60;99.90;;;;;;5092855;28;20044;-73
2021/09/17 06:14:56;;;;;;;36.30;26.02;;;14.70;99.90;;;;;;5091888;28;20079;-72
2021/09/17 06:17:22;;;;;;;39.75;28.00;;;14.70;99.90;;;;;;5091522;28;20093;-72
2021/09/17 06:19:47;;;;;;;41.78;29.27;;;14.70;99.90;;;;;;5093383;28;20089;-72
2021/09/17 06:22:13;;;;;;;43.40;29.55;;;14.70;99.90;;;;;;5096728;28;20050;-72
2021/09/17 06:24:39;;;;;;;42.92;27.73;;;14.80;99.90;;;;;;5096717;28;20361;-72
2021/09/17 06:27:08;;;;;;;41.80;27.58;;;14.80;99.90;;;;;;5095463;28;20446;-72
2021/09/17 06:29:33;;;;;;;42.25;27.33;;;14.90;99.90;;;;;;5096372;28;20082;-72
2021/09/17 06:31:59;;;;;;;42.95;28.58;;;15.00;99.90;;;;;;5095058;28;20071;-72
2021/09/17 06:34:25;;;;;;;46.75;30.08;;;15.00;99.90;;;;;;5078233;28;20055;-72
2021/09/17 06:36:50;;;;;;;44.13;27.92;;;15.10;99.90;;;;;;5096439;28;20475;-72
2021/09/17 06:39:17;;;;;;;40.00;27.70;;;15.10;99.90;;;;;;5077865;28;20072;-73
2021/09/17 06:41:43;;;;;;;43.65;28.58;;;15.20;99.90;;;;;;5096152;28;20040;-73
2021/09/17 06:44:09;;;;;;;45.10;28.33;;;15.20;99.90;;;;;;5095272;28;20046;-73
2021/09/17 06:46:34;;;;;;;37.88;27.40;;;15.20;99.90;;;;;;5096489;28;20504;-72
2021/09/17 06:49:00;;;;;;;35.45;26.67;;;15.20;99.90;;;;;;5095767;28;20055;-73
2021/09/17 06:51:26;;;;;;;37.38;26.63;;;15.30;99.90;;;;;;5096090;28;20033;-72
2021/09/17 06:53:51;;;;;;;35.15;27.48;;;15.30;99.90;;;;;;5096614;28;20032;-72
2021/09/17 06:56:17;;;;;;;36.10;23.85;;;15.30;99.90;;;;;;5096038;28;20093;-72
2021/09/17 06:58:43;;;;;;;35.65;25.73;;;15.30;99.90;;;;;;5095608;28;20070;-73
2021/09/17 07:01:11;;;;;;;40.42;26.30;;;15.30;99.90;;;;;;5095869;28;20480;-72
2021/09/17 07:03:37;;;;;;;32.13;24.48;;;15.30;99.90;;;;;;5096505;28;20036;-72
2021/09/17 07:06:03;;;;;;;31.08;24.58;;;15.40;99.90;;;;;;5095872;28;20442;-72
2021/09/17 07:08:28;;;;;;;31.50;23.63;;;15.50;99.90;;;;;;5095781;28;20362;-73
2021/09/17 07:10:54;;;;;;;33.72;23.25;;;15.50;99.90;;;;;;5094798;28;20350;-72
2021/09/17 07:13:20;;;;;;;35.25;25.17;;;15.60;99.90;;;;;;5094389;28;20044;-72
2021/09/17 07:15:45;;;;;;;31.95;24.80;;;15.60;99.90;;;;;;5095647;28;20063;-72
2021/09/17 07:18:11;;;;;;;30.77;22.92;;;15.60;99.90;;;;;;5095419;28;20077;-72
2021/09/17 07:20:38;;;;;;;29.38;22.33;;;15.70;99.90;;;;;;5095446;28;20032;-72
2021/09/17 07:23:05;;;;;;;29.60;22.20;;;15.80;99.90;;;;;;5095443;28;20044;-72
2021/09/17 07:25:32;;;;;;;34.00;23.65;;;15.90;99.90;;;;;;5095568;28;20396;-73
2021/09/17 07:27:58;;;;;;;30.08;21.77;;;16.00;99.90;;;;;;5095847;28;20040;-72
2021/09/17 07:30:27;;;;;;;28.73;22.23;;;16.10;99.90;;;;;;5095494;28;20145;-72
2021/09/17 07:32:53;;;;;;;28.70;22.13;;;16.20;99.90;;;;;;5094898;28;20040;-72
2021/09/17 07:35:19;;;;;;;24.05;19.65;;;16.30;99.90;;;;;;5095508;28;20127;-72
2021/09/17 07:37:45;;;;;;;25.00;20.58;;;16.30;99.90;;;;;;5095366;28;20085;-73
2021/09/17 07:40:16;;;;;;;26.80;21.40;;;16.40;99.90;;;;;;5095180;28;20119;-72
2021/09/17 07:42:43;;;;;;;28.10;20.58;;;16.50;99.90;;;;;;5093949;28;20046;-73
2021/09/17 07:45:10;;;;;;;25.77;20.48;;;16.60;99.90;;;;;;5094578;28;20043;-72
2021/09/17 07:47:36;;;;;;;26.90;20.95;;;16.70;99.90;;;;;;5093772;28;20126;-73
2021/09/17 07:50:02;;;;;;;25.02;21.05;;;16.70;99.90;;;;;;5093750;28;20136;-72
2021/09/17 07:52:28;;;;;;;26.23;19.63;;;16.70;99.90;;;;;;5093932;28;20543;-72
2021/09/17 07:54:53;;;;;;;21.95;18.77;;;16.70;99.90;;;;;;5095018;28;20063;-73
2021/09/17 07:57:19;;;;;;;24.55;20.33;;;16.80;99.90;;;;;;5094894;28;20109;-73
2021/09/17 07:59:44;;;;;;;22.67;18.63;;;16.80;99.90;;;;;;5093506;28;20078;-73
2021/09/17 08:02:10;;;;;;;24.67;19.63;;;16.80;99.90;;;;;;5076795;28;20036;-73
2021/09/17 08:04:38;;;;;;;22.67;19.08;;;16.90;99.90;;;;;;5094768;28;20513;-73
2021/09/17 08:07:05;;;;;;;21.75;17.85;;;17.10;99.90;;;;;;5094763;28;20047;-73
2021/09/17 08:09:32;;;;;;;21.88;17.83;;;17.20;99.90;;;;;;5076226;28;20055;-73
2021/09/17 08:11:57;;;;;;;22.33;16.50;;;17.30;99.90;;;;;;5094614;28;20125;-72
2021/09/17 08:14:23;;;;;;;25.50;17.50;;;17.40;99.90;;;;;;5093741;28;20116;-72
2021/09/17 08:16:48;;;;;;;26.48;18.00;;;17.40;99.90;;;;;;5093473;28;20052;-72
2021/09/17 08:19:14;;;;;;;22.00;17.88;;;17.40;99.90;;;;;;5094600;28;20051;-72
2021/09/17 08:21:42;;;;;;;22.17;16.52;;;17.60;99.90;;;;;;5076921;28;20084;-72
2021/09/17 08:24:15;;;;;;;20.10;15.75;;;17.60;99.90;;;;;;5094943;28;20097;-72
2021/09/17 08:26:46;;;;;;;19.23;14.07;;;17.70;99.90;;;;;;5094893;28;20094;-72
2021/09/17 08:29:12;;;;;;;19.30;14.40;;;17.80;99.90;;;;;;5094224;28;20545;-72
2021/09/17 08:31:38;;;;;;;16.85;13.82;;;17.70;99.90;;;;;;5094582;28;20032;-73
2021/09/17 08:34:06;;;;;;;16.88;13.35;;;17.80;99.90;;;;;;5094527;28;20496;-73
2021/09/17 08:36:32;;;;;;;17.80;13.73;;;17.90;99.90;;;;;;5094751;28;20123;-72
2021/09/17 08:38:57;;;;;;;17.10;13.80;;;17.80;99.90;;;;;;5075983;28;20063;-73
2021/09/17 08:41:24;;;;;;;14.60;11.65;;;17.90;99.90;;;;;;5093966;28;20032;-73
2021/09/17 08:43:50;;;;;;;15.07;9.82;;;18.00;99.90;;;;;;5075183;28;20172;-73
2021/09/17 08:46:16;;;;;;;11.93;8.25;;;18.20;99.90;;;;;;5094023;28;20028;-73
2021/09/17 08:48:43;;;;;;;11.60;6.65;;;18.20;99.90;;;;;;5093824;28;20472;-72
2021/09/17 08:51:09;;;;;;;10.18;5.68;;;18.10;99.90;;;;;;5094032;28;20092;-72
2021/09/17 08:53:35;;;;;;;9.13;5.18;;;18.10;99.90;;;;;;5094159;28;20036;-73
2021/09/17 08:56:01;;;;;;;4.95;2.70;;;17.90;99.90;;;;;;5093846;28;20050;-72
2021/09/17 08:58:27;;;;;;;5.78;2.55;;;18.00;99.90;;;;;;5092593;28;20044;-73
2021/09/17 09:00:53;;;;;;;2.78;2.05;;;17.90;99.90;;;;;;5093606;28;20047;-72
2021/09/17 09:03:31;;;;;;;4.38;2.35;;;18.00;99.90;;;;;;5094056;28;20040;-72
2021/09/17 09:06:09;;;;;;;2.75;2.13;;;18.10;99.90;;;;;;5094344;28;20072;-73
2021/09/17 09:08:37;;;;;;;4.93;2.58;;;18.10;99.90;;;;;;5075860;28;20043;-73
2021/09/17 09:11:17;;;;;;;2.78;2.00;;;18.10;99.90;;;;;;5093568;28;20496;-72
2021/09/17 09:14:02;;;;;;;4.72;2.10;;;18.00;99.90;;;;;;5092734;28;20040;-73
2021/09/17 09:16:29;;;;;;;6.75;2.50;;;18.00;99.90;;;;;;5093446;28;20032;-73
2021/09/17 09:18:54;;;;;;;6.53;2.70;;;18.00;99.90;;;;;;5092329;28;20036;-73
2021/09/17 09:21:25;;;;;;;6.85;2.85;;;18.10;99.90;;;;;;5093347;28;20040;-74
2021/09/17 09:24:08;;;;;;;6.28;2.70;;;18.10;99.90;;;;;;5093652;28;20085;-73
2021/09/17 09:26:34;;;;;;;7.00;2.97;;;18.10;99.90;;;;;;5093854;28;20040;-73
2021/09/17 09:29:00;;;;;;;4.22;2.30;;;18.00;99.90;;;;;;5093470;28;20123;-73
2021/09/17 09:31:26;;;;;;;8.25;2.33;;;18.10;99.90;;;;;;5093247;28;20040;-73
2021/09/17 09:33:53;;;;;;;6.68;2.17;;;18.00;99.90;;;;;;5092099;28;20044;-73
2021/09/17 09:36:20;;;;;;;4.10;2.15;;;18.00;99.90;;;;;;5093306;28;20040;-73
2021/09/17 09:38:47;;;;;;;5.40;2.30;;;18.10;99.90;;;;;;5091652;28;20047;-74
2021/09/17 09:41:22;;;;;;;4.47;1.42;;;18.10;99.90;;;;;;5092162;28;20034;-73
2021/09/17 09:43:52;;;;;;;4.97;1.88;;;18.20;99.90;;;;;;5093251;28;20107;-74
2021/09/17 09:46:38;;;;;;;3.63;1.73;;;18.20;99.90;;;;;;5093257;28;20032;-73
2021/09/17 09:49:09;;;;;;;5.47;2.30;;;18.30;99.90;;;;;;5093147;28;20044;-74
2021/09/17 09:51:41;;;;;;;6.57;1.73;;;18.20;99.90;;;;;;5093407;28;20048;-74
2021/09/17 09:54:09;;;;;;;6.90;1.90;;;18.30;99.90;;;;;;5093714;28;20403;-74
2021/09/17 09:56:37;;;;;;;2.75;1.50;;;18.30;99.90;;;;;;5095736;28;20040;-74
2021/09/17 09:59:06;;;;;;;4.70;1.42;;;18.40;99.90;;;;;;5096854;28;20384;-74
2021/09/17 10:01:37;;;;;;;4.13;2.00;;;18.40;99.90;;;;;;5097072;28;20132;-73
2021/09/17 10:04:04;;;;;;;5.30;2.20;;;18.50;99.90;;;;;;5097284;28;20039;-73
2021/09/17 10:06:39;;;;;;;6.85;2.47;;;18.50;99.90;;;;;;5097188;28;20118;-73
2021/09/17 10:09:07;;;;;;;5.85;2.00;;;18.50;99.90;;;;;;5095589;28;20128;-73
2021/09/17 10:11:33;;;;;;;5.25;2.05;;;18.40;99.90;;;;;;5097189;28;20617;-73
2021/09/17 10:14:01;;;;;;;4.05;1.42;;;18.40;99.90;;;;;;5079152;28;20476;-72
2021/09/17 10:16:29;;;;;;;2.95;1.70;;;18.40;99.90;;;;;;5097359;28;20358;-73
2021/09/17 10:18:56;;;;;;;6.45;2.00;;;18.50;99.90;;;;;;5095758;28;20056;-72
2021/09/17 10:21:49;;;;;;;2.78;1.65;;;18.90;99.90;;;;;;5095264;28;20040;-72
2021/09/17 10:24:27;;;;;;;5.55;1.70;;;19.00;99.90;;;;;;5096380;28;20161;-72
2021/09/17 10:26:58;;;;;;;3.30;1.90;;;19.00;99.90;;;;;;5093604;28;20040;-72
2021/09/17 10:29:52;;;;;;;2.72;1.58;;;19.00;99.90;;;;;;5093002;28;20084;-71
2021/09/17 10:32:27;;;;;;;6.53;2.33;;;19.00;99.90;;;;;;5087267;28;20148;-72
2021/09/17 10:35:12;;;;;;;3.47;1.90;;;19.10;99.90;;;;;;5095125;28;20036;-71
2021/09/17 10:38:04;;;;;;;3.28;1.80;;;19.20;99.90;;;;;;5095887;28;20118;-72
2021/09/17 10:40:43;;;;;;;3.33;2.53;;;19.10;99.90;;;;;;5096079;28;20079;-72
2021/09/17 10:43:09;;;;;;;3.13;2.00;;;19.00;99.90;;;;;;5096300;28;20075;-72
2021/09/17 10:45:42;;;;;;;4.28;1.85;;;19.00;99.90;;;;;;5096686;28;20429;-72
2021/09/17 10:48:09;;;;;;;4.03;1.83;;;19.10;99.90;;;;;;5096744;28;20408;-72
2021/09/17 10:50:56;;;;;;;2.97;1.80;;;19.20;99.90;;;;;;5096431;28;20083;-72
2021/09/17 10:53:41;;;;;;;5.03;1.58;;;19.20;99.90;;;;;;5096519;28;20381;-72
2021/09/17 10:56:12;;;;;;;2.67;1.50;;;19.20;99.90;;;;;;5091012;28;20056;-72
2021/09/17 10:58:42;;;;;;;3.28;1.48;;;19.20;99.90;;;;;;5096299;28;20093;-72
2021/09/17 11:01:10;;;;;;;3.08;1.25;;;19.20;99.90;;;;;;5095445;28;20089;-72
2021/09/17 11:03:36;;;;;;;3.03;1.40;;;19.10;99.90;;;;;;5095039;28;20087;-72
2021/09/17 11:06:37;;;;;;;4.13;1.73;;;19.10;99.90;;;;;;5095744;28;20071;-71
2021/09/17 11:09:04;;;;;;;3.70;1.85;;;19.10;99.90;;;;;;5093682;28;20040;-72
2021/09/17 11:11:55;;;;;;;5.18;1.50;;;19.10;99.90;;;;;;5095357;28;20127;-72
2021/09/17 11:14:21;;;;;;;2.92;1.60;;;19.10;99.90;;;;;;5094344;28;20131;-71
2021/09/17 11:16:49;;;;;;;4.85;1.80;;;19.00;99.90;;;;;;5095634;28;20039;-71
2021/09/17 11:19:17;;;;;;;4.75;1.55;;;18.90;99.90;;;;;;5095182;28;20044;-73
2021/09/17 11:21:49;;;;;;;3.40;1.60;;;18.90;99.90;;;;;;5094478;28;20117;-73
2021/09/17 11:24:26;;;;;;;4.90;1.80;;;18.80;99.90;;;;;;5094737;28;20050;-73
2021/09/17 11:26:53;;;;;;;3.15;1.30;;;18.70;99.90;;;;;;5096045;28;20536;-73
2021/09/17 11:29:20;;;;;;;2.45;1.30;;;18.60;99.90;;;;;;5094281;28;20050;-73
2021/09/17 11:31:52;;;;;;;4.15;1.30;;;18.60;99.90;;;;;;5095441;28;20392;-73
2021/09/17 11:34:20;;;;;;;3.40;1.67;;;18.60;99.90;;;;;;5095257;28;20526;-74
2021/09/17 11:36:53;;;;;;;5.97;1.42;;;18.50;99.90;;;;;;5095463;28;20040;-74
2021/09/17 11:39:25;;;;;;;4.85;1.20;;;18.40;99.90;;;;;;5094800;28;20056;-72
2021/09/17 11:42:06;;;;;;;2.40;1.45;;;18.60;99.90;;;;;;5093779;28;20043;-72
2021/09/17 11:44:48;;;;;;;3.47;1.40;;;18.80;99.90;;;;;;5095348;28;20374;-72
2021/09/17 11:47:22;;;;;;;4.80;1.92;;;18.90;99.90;;;;;;5095499;28;20129;-72
2021/09/17 11:49:47;;;;;;;;;;;19.00;99.90;;;;;;5095562;28;20046;-72
2021/09/17 11:52:18;;;;;;;3.92;1.35;;;19.10;99.90;;;;;;5095082;28;19916;-72
2021/09/17 11:54:57;;;;;;;3.88;1.60;;;19.20;99.90;;;;;;5094808;28;20040;-73
2021/09/17 11:57:33;;;;;;;4.15;1.75;;;19.20;99.90;;;;;;5094962;28;20047;-73
2021/09/17 12:00:04;;;;;;;1.98;1.20;;;19.20;99.90;;;;;;5094558;28;20047;-72
2021/09/17 12:02:30;;;;;;;4.38;1.60;;;19.40;99.90;;;;;;5089518;28;20059;-73
2021/09/17 12:04:57;;;;;;;1.70;1.05;;;19.60;99.90;;;;;;5093523;28;20468;-72
2021/09/17 12:07:27;;;;;;;3.80;1.38;;;19.60;99.90;;;;;;5076526;28;20044;-72
2021/09/17 12:09:54;;;;;;;2.70;1.35;;;19.60;99.90;;;;;;5093402;28;20040;-73
2021/09/17 12:12:34;;;;;;;2.80;1.55;;;19.60;99.90;;;;;;5095064;28;20118;-73
2021/09/17 12:15:00;;;;;;;3.35;1.48;;;19.60;99.90;;;;;;5094733;28;20043;-73
2021/09/17 12:17:26;;;;;;;2.92;1.63;;;19.50;99.90;;;;;;5094542;28;20044;-72
2021/09/17 12:20:05;;;;;;;3.35;1.60;;;19.40;99.90;;;;;;5094295;28;20038;-72
2021/09/17 12:22:44;;;;;;;4.28;1.48;;;19.40;99.90;;;;;;5093522;28;20468;-72
2021/09/17 12:25:15;;;;;;;4.80;1.48;;;19.40;99.90;;;;;;5094474;28;20040;-73
2021/09/17 12:27:47;;;;;;;10.93;3.97;;;19.50;99.90;;;;;;5094546;28;20044;-72
2021/09/17 12:30:16;;;;;;;6.45;3.08;;;19.50;99.90;;;;;;5094164;28;20479;-73
2021/09/17 12:32:43;;;;;;;3.88;1.60;;;19.60;99.90;;;;;;5075984;28;20037;-73
2021/09/17 12:35:14;;;;;;;2.28;1.58;;;19.60;99.90;;;;;;5074078;28;20048;-72
2021/09/17 12:37:53;;;;;;;4.65;1.25;;;19.60;99.90;;;;;;5073637;28;20048;-72